createdAt,value
2019-02-01T00:00:20.030Z,14.70
2019-02-01T00:01:19.887Z,14.00
2019-02-01T00:02:19.858Z,13.40
2019-02-01T00:03:19.836Z,15.30
2019-02-01T00:04:19.806Z,13.40
2019-02-01T00:05:19.778Z,16.30
2019-02-01T00:06:19.864Z,15.00
2019-02-01T00:07:19.712Z,13.60
2019-02-01T00:08:19.683Z,14.60
2019-02-01T00:09:19.654Z,15.50
2019-02-01T00:10:19.622Z,14.20
2019-02-01T00:11:19.603Z,12.90
2019-02-01T00:12:19.565Z,13.60
2019-02-01T00:13:19.546Z,14.00
2019-02-01T00:14:19.511Z,14.50
2019-02-01T00:15:19.483Z,12.20
2019-02-01T00:16:19.450Z,15.90
2019-02-01T00:17:19.422Z,14.20
2019-02-01T00:18:19.394Z,14.40
2019-02-01T00:19:19.363Z,14.50
2019-02-01T00:20:19.337Z,14.70
2019-02-01T00:21:19.309Z,12.10
2019-02-01T00:22:19.280Z,15.50
2019-02-01T00:23:19.256Z,14.60
2019-02-01T00:24:19.217Z,14.80
2019-02-01T00:25:19.189Z,16.50
2019-02-01T00:26:19.157Z,14.20
2019-02-01T00:27:19.150Z,13.70
2019-02-01T00:28:19.097Z,14.60
2019-02-01T00:29:19.070Z,14.30
2019-02-01T00:30:19.060Z,13.80
2019-02-01T00:31:19.021Z,13.50
2019-02-01T00:32:18.983Z,12.30
2019-02-01T00:33:26.937Z,15.20
2019-02-01T00:34:18.923Z,13.20
2019-02-01T00:35:18.904Z,13.20
2019-02-01T00:36:18.870Z,12.40
2019-02-01T00:37:18.836Z,14.20
2019-02-01T00:38:18.821Z,14.60
2019-02-01T00:39:18.779Z,13.40
2019-02-01T00:40:18.762Z,16.50
2019-02-01T00:41:18.727Z,15.30
2019-02-01T00:42:18.692Z,13.90
2019-02-01T00:43:18.661Z,14.60
2019-02-01T00:44:18.632Z,10.70
2019-02-01T00:45:18.611Z,11.70
2019-02-01T00:46:18.573Z,12.40
2019-02-01T00:47:18.544Z,12.60
2019-02-01T00:48:18.519Z,12.70
2019-02-01T00:49:18.488Z,13.40
2019-02-01T00:50:18.482Z,13.10
2019-02-01T00:51:18.429Z,15.00
2019-02-01T00:52:18.416Z,13.60
2019-02-01T00:53:18.508Z,13.90
2019-02-01T00:54:18.340Z,11.90
2019-02-01T00:55:18.313Z,11.50
2019-02-01T00:56:18.286Z,10.30
2019-02-01T00:57:18.256Z,11.00
2019-02-01T00:58:18.227Z,11.20
2019-02-01T00:59:18.200Z,11.00
2019-02-01T01:00:18.169Z,11.40
2019-02-01T01:01:18.141Z,10.70
2019-02-01T01:02:18.111Z,10.70
2019-02-01T01:03:18.131Z,10.00
2019-02-01T01:04:18.054Z,10.10
2019-02-01T01:05:18.025Z,11.20
2019-02-01T01:06:18.002Z,13.00
2019-02-01T01:07:17.975Z,10.70
2019-02-01T01:08:17.941Z,13.50
2019-02-01T01:09:17.907Z,10.10
2019-02-01T01:10:17.878Z,13.10
2019-02-01T01:11:17.857Z,11.50
2019-02-01T01:12:17.837Z,11.70
2019-02-01T01:13:17.792Z,10.40
2019-02-01T01:14:17.764Z,12.20
2019-02-01T01:15:17.734Z,9.80
2019-02-01T01:16:17.703Z,9.20
2019-02-01T01:17:17.681Z,10.30
2019-02-01T01:18:24.130Z,10.50
2019-02-01T01:19:17.619Z,12.40
2019-02-01T01:20:17.591Z,11.40
2019-02-01T01:21:17.561Z,11.80
2019-02-01T01:22:17.531Z,11.70
2019-02-01T01:23:17.503Z,7.90
2019-02-01T01:24:17.474Z,8.40
2019-02-01T01:25:17.445Z,12.00
2019-02-01T01:26:17.431Z,8.90
2019-02-01T01:27:17.386Z,9.10
2019-02-01T01:28:17.359Z,9.10
2019-02-01T01:29:17.329Z,10.00
2019-02-01T01:30:17.303Z,9.50
2019-02-01T01:31:17.281Z,9.20
2019-02-01T01:32:17.257Z,10.30
2019-02-01T01:33:17.214Z,8.70
2019-02-01T01:34:17.192Z,8.50
2019-02-01T01:35:17.288Z,7.30
2019-02-01T01:36:17.206Z,6.30
2019-02-01T01:37:17.100Z,6.40
2019-02-01T01:38:17.069Z,9.50
2019-02-01T01:39:17.047Z,7.90
2019-02-01T01:40:17.014Z,9.40
2019-02-01T01:41:16.995Z,6.10
2019-02-01T01:42:16.956Z,7.70
2019-02-01T01:43:16.930Z,7.00
2019-02-01T01:44:16.899Z,7.90
2019-02-01T01:45:16.870Z,7.00
2019-02-01T01:46:16.846Z,7.70
2019-02-01T01:47:16.811Z,8.40
2019-02-01T01:48:16.783Z,6.00
2019-02-01T01:49:16.753Z,8.90
2019-02-01T01:50:16.723Z,6.00
2019-02-01T01:51:16.694Z,9.90
2019-02-01T01:52:16.665Z,6.50
2019-02-01T01:53:16.644Z,7.10
2019-02-01T01:54:16.606Z,6.00
2019-02-01T01:55:16.577Z,6.80
2019-02-01T01:56:16.549Z,8.50
2019-02-01T01:57:16.522Z,8.10
2019-02-01T01:58:16.488Z,6.10
2019-02-01T01:59:16.460Z,8.40
2019-02-01T02:00:16.433Z,9.20
2019-02-01T02:01:16.404Z,8.40
2019-02-01T02:02:16.375Z,8.20
2019-02-01T02:03:16.357Z,8.60
2019-02-01T02:04:16.315Z,6.70
2019-02-01T02:05:16.288Z,5.20
2019-02-01T02:06:16.259Z,7.20
2019-02-01T02:07:16.237Z,5.90
2019-02-01T02:08:16.201Z,7.50
2019-02-01T02:09:16.173Z,7.20
2019-02-01T02:10:16.142Z,7.10
2019-02-01T02:11:16.122Z,7.90
2019-02-01T02:12:16.085Z,6.80
2019-02-01T02:13:16.057Z,6.40
2019-02-01T02:14:16.027Z,8.90
2019-02-01T02:15:15.999Z,4.30
2019-02-01T02:16:15.970Z,7.00
2019-02-01T02:17:15.940Z,6.70
2019-02-01T02:18:15.919Z,6.50
2019-02-01T02:19:15.882Z,7.20
2019-02-01T02:20:15.853Z,6.80
2019-02-01T02:21:15.826Z,7.70
2019-02-01T02:22:15.798Z,6.50
2019-02-01T02:23:15.764Z,5.40
2019-02-01T02:24:15.746Z,6.20
2019-02-01T02:25:15.712Z,5.20
2019-02-01T02:26:15.677Z,5.90
2019-02-01T02:27:15.648Z,7.50
2019-02-01T02:28:15.618Z,8.80
2019-02-01T02:29:15.590Z,8.60
2019-02-01T02:30:15.562Z,7.60
2019-02-01T02:31:15.530Z,7.30
2019-02-01T02:32:15.517Z,7.30
2019-02-01T02:33:15.473Z,8.40
2019-02-01T02:34:15.445Z,8.30
2019-02-01T02:35:15.421Z,5.30
2019-02-01T02:36:15.387Z,7.40
2019-02-01T02:37:15.357Z,8.50
2019-02-01T02:38:15.332Z,7.30
2019-02-01T02:39:15.301Z,7.40
2019-02-01T02:40:15.286Z,6.50
2019-02-01T02:41:15.259Z,6.10
2019-02-01T02:42:15.215Z,6.60
2019-02-01T02:43:15.182Z,6.70
2019-02-01T02:44:15.161Z,7.30
2019-02-01T02:45:15.130Z,7.30
2019-02-01T02:46:15.096Z,6.10
2019-02-01T02:47:15.069Z,7.70
2019-02-01T02:48:15.037Z,9.80
2019-02-01T02:49:15.008Z,9.30
2019-02-01T02:50:14.982Z,7.30
2019-02-01T02:51:14.949Z,8.10
2019-02-01T02:52:14.921Z,4.90
2019-02-01T02:53:14.899Z,5.90
2019-02-01T02:54:14.867Z,6.50
2019-02-01T02:55:14.833Z,4.90
2019-02-01T02:56:14.806Z,9.20
2019-02-01T02:57:14.787Z,9.70
2019-02-01T02:58:14.747Z,5.40
2019-02-01T02:59:14.722Z,7.80
2019-02-01T03:00:14.689Z,6.00
2019-02-01T03:01:14.660Z,7.20
2019-02-01T03:02:14.636Z,6.80
2019-02-01T03:03:14.602Z,4.80
2019-02-01T03:04:14.573Z,5.60
2019-02-01T03:05:14.558Z,7.60
2019-02-01T03:06:14.516Z,6.00
2019-02-01T03:07:14.490Z,5.10
2019-02-01T03:08:14.459Z,5.10
2019-02-01T03:09:14.443Z,7.10
2019-02-01T03:10:14.406Z,5.80
2019-02-01T03:11:14.381Z,5.30
2019-02-01T03:12:14.342Z,6.10
2019-02-01T03:13:14.312Z,5.10
2019-02-01T03:14:14.282Z,7.50
2019-02-01T03:15:14.262Z,8.00
2019-02-01T03:16:14.229Z,7.50
2019-02-01T03:17:14.196Z,7.40
2019-02-01T03:18:14.182Z,8.60
2019-02-01T03:19:14.139Z,6.30
2019-02-01T03:20:14.118Z,6.40
2019-02-01T03:21:14.080Z,7.70
2019-02-01T03:22:14.052Z,6.50
2019-02-01T03:23:14.021Z,4.50
2019-02-01T03:24:13.998Z,7.70
2019-02-01T03:25:13.970Z,7.20
2019-02-01T03:26:13.936Z,3.80
2019-02-01T03:27:13.913Z,5.70
2019-02-01T03:28:13.931Z,5.50
2019-02-01T03:29:13.856Z,5.80
2019-02-01T03:30:13.820Z,5.80
2019-02-01T03:31:13.791Z,5.60
2019-02-01T03:32:13.765Z,4.60
2019-02-01T03:33:13.737Z,5.40
2019-02-01T03:34:13.706Z,6.50
2019-02-01T03:35:13.675Z,5.40
2019-02-01T03:36:13.646Z,6.80
2019-02-01T03:37:13.620Z,6.90
2019-02-01T03:38:13.590Z,8.30
2019-02-01T03:39:13.559Z,4.00
2019-02-01T03:40:13.532Z,5.90
2019-02-01T03:41:13.511Z,7.30
2019-02-01T03:42:13.504Z,8.30
2019-02-01T03:43:13.444Z,6.30
2019-02-01T03:44:13.427Z,6.80
2019-02-01T03:45:13.386Z,6.90
2019-02-01T03:46:13.367Z,7.30
2019-02-01T03:47:13.330Z,4.60
2019-02-01T03:48:13.298Z,11.70
2019-02-01T03:49:25.150Z,6.80
2019-02-01T03:50:13.241Z,5.90
2019-02-01T03:51:13.213Z,6.20
2019-02-01T03:52:13.190Z,6.60
2019-02-01T03:53:13.167Z,5.30
2019-02-01T03:54:13.126Z,8.80
2019-02-01T03:55:13.096Z,6.20
2019-02-01T03:56:13.074Z,5.40
2019-02-01T03:57:13.045Z,5.60
2019-02-01T03:58:13.008Z,7.70
2019-02-01T03:59:12.988Z,7.50
2019-02-01T04:00:12.955Z,6.40
2019-02-01T04:01:12.923Z,4.90
2019-02-01T04:02:12.892Z,7.10
2019-02-01T04:03:12.871Z,7.40
2019-02-01T04:04:12.845Z,7.30
2019-02-01T04:05:12.805Z,6.80
2019-02-01T04:06:12.778Z,6.40
2019-02-01T04:07:12.752Z,7.40
2019-02-01T04:08:12.721Z,8.10
2019-02-01T04:09:12.697Z,7.50
2019-02-01T04:10:12.662Z,6.20
2019-02-01T04:11:12.633Z,7.70
2019-02-01T04:12:12.603Z,6.60
2019-02-01T04:13:12.576Z,6.80
2019-02-01T04:14:12.544Z,7.30
2019-02-01T04:15:12.531Z,5.40
2019-02-01T04:16:12.488Z,8.10
2019-02-01T04:17:12.461Z,6.80
2019-02-01T04:18:12.429Z,6.00
2019-02-01T04:19:12.408Z,6.40
2019-02-01T04:20:12.380Z,7.00
2019-02-01T04:21:12.347Z,6.50
2019-02-01T04:22:12.321Z,7.60
2019-02-01T04:23:12.288Z,6.10
2019-02-01T04:24:12.258Z,6.40
2019-02-01T04:25:12.390Z,6.90
2019-02-01T04:26:12.212Z,6.80
2019-02-01T04:27:12.173Z,10.50
2019-02-01T04:28:12.143Z,6.80
2019-02-01T04:29:12.119Z,8.60
2019-02-01T04:30:12.096Z,6.80
2019-02-01T04:31:12.085Z,7.30
2019-02-01T04:32:12.033Z,6.30
2019-02-01T04:33:12.006Z,6.30
2019-02-01T04:34:11.973Z,9.10
2019-02-01T04:35:11.940Z,8.70
2019-02-01T04:36:11.913Z,8.20
2019-02-01T04:37:11.886Z,6.20
2019-02-01T04:38:11.862Z,11.30
2019-02-01T04:39:11.830Z,10.40
2019-02-01T04:40:11.797Z,9.40
2019-02-01T04:41:11.769Z,11.90
2019-02-01T04:42:11.738Z,10.20
2019-02-01T04:43:11.710Z,10.00
2019-02-01T04:44:11.689Z,10.30
2019-02-01T04:45:11.653Z,11.80
2019-02-01T04:46:11.774Z,11.10
2019-02-01T04:47:11.592Z,11.50
2019-02-01T04:48:11.565Z,11.80
2019-02-01T04:49:11.534Z,11.90
2019-02-01T04:50:11.505Z,11.90
2019-02-01T04:51:11.476Z,12.70
2019-02-01T04:52:11.446Z,12.30
2019-02-01T04:53:11.422Z,13.00
2019-02-01T04:54:11.390Z,10.80
2019-02-01T04:55:11.360Z,10.20
2019-02-01T04:56:11.333Z,11.50
2019-02-01T04:57:11.302Z,13.60
2019-02-01T04:58:11.278Z,12.40
2019-02-01T04:59:11.250Z,16.50
2019-02-01T05:00:11.228Z,15.60
2019-02-01T05:01:11.191Z,14.70
2019-02-01T05:02:11.158Z,16.50
2019-02-01T05:03:11.128Z,15.30
2019-02-01T05:04:11.109Z,17.00
2019-02-01T05:05:11.074Z,18.00
2019-02-01T05:06:11.041Z,14.60
2019-02-01T05:07:11.014Z,15.10
2019-02-01T05:08:10.984Z,15.00
2019-02-01T05:09:10.965Z,15.20
2019-02-01T05:10:10.936Z,14.20
2019-02-01T05:11:10.899Z,17.50
2019-02-01T05:12:10.868Z,13.10
2019-02-01T05:13:10.857Z,14.80
2019-02-01T05:14:10.810Z,15.50
2019-02-01T05:15:10.780Z,18.50
2019-02-01T05:16:10.750Z,16.90
2019-02-01T05:17:10.720Z,17.20
2019-02-01T05:18:10.700Z,14.30
2019-02-01T05:19:10.662Z,16.80
2019-02-01T05:20:19.855Z,20.00
2019-02-01T05:21:10.633Z,12.40
2019-02-01T05:22:10.586Z,15.70
2019-02-01T05:23:10.557Z,18.90
2019-02-01T05:24:10.519Z,17.60
2019-02-01T05:25:10.487Z,16.00
2019-02-01T05:26:10.458Z,18.00
2019-02-01T05:27:10.492Z,16.60
2019-02-01T05:28:10.399Z,13.60
2019-02-01T05:29:10.377Z,18.80
2019-02-01T05:30:10.340Z,23.00
2019-02-01T05:31:10.319Z,18.20
2019-02-01T05:32:10.282Z,17.10
2019-02-01T05:33:10.260Z,16.00
2019-02-01T05:34:10.231Z,21.50
2019-02-01T05:35:10.195Z,26.10
2019-02-01T05:36:10.164Z,21.00
2019-02-01T05:37:10.136Z,28.90
2019-02-01T05:38:10.104Z,23.60
2019-02-01T05:39:10.077Z,24.30
2019-02-01T05:40:10.045Z,24.50
2019-02-01T05:41:10.017Z,22.60
2019-02-01T05:42:09.986Z,22.70
2019-02-01T05:43:09.958Z,20.20
2019-02-01T05:44:09.928Z,16.90
2019-02-01T05:45:09.905Z,20.30
2019-02-01T05:46:09.868Z,23.80
2019-02-01T05:47:09.840Z,21.10
2019-02-01T05:48:09.809Z,22.50
2019-02-01T05:49:09.782Z,20.80
2019-02-01T05:50:09.750Z,22.80
2019-02-01T05:51:09.723Z,23.00
2019-02-01T05:52:09.696Z,23.90
2019-02-01T05:53:09.668Z,24.20
2019-02-01T05:54:09.632Z,29.40
2019-02-01T05:55:09.603Z,18.30
2019-02-01T05:56:09.576Z,22.40
2019-02-01T05:57:09.546Z,26.00
2019-02-01T05:58:09.514Z,27.00
2019-02-01T05:59:09.483Z,20.00
2019-02-01T06:00:09.464Z,18.30
2019-02-01T06:01:09.426Z,23.90
2019-02-01T06:02:09.399Z,23.20
2019-02-01T06:03:09.388Z,24.70
2019-02-01T06:04:09.338Z,26.70
2019-02-01T06:05:09.307Z,28.60
2019-02-01T06:06:09.285Z,26.20
2019-02-01T06:07:09.248Z,26.30
2019-02-01T06:08:09.228Z,26.90
2019-02-01T06:09:09.199Z,25.80
2019-02-01T06:10:09.159Z,25.30
2019-02-01T06:11:09.143Z,28.10
2019-02-01T06:12:09.109Z,28.00
2019-02-01T06:13:09.077Z,26.80
2019-02-01T06:14:09.041Z,31.00
2019-02-01T06:15:09.027Z,24.30
2019-02-01T06:16:08.983Z,26.30
2019-02-01T06:17:08.959Z,28.20
2019-02-01T06:18:08.926Z,21.10
2019-02-01T06:19:08.896Z,25.00
2019-02-01T06:20:08.865Z,28.30
2019-02-01T06:21:08.836Z,29.40
2019-02-01T06:22:08.814Z,18.70
2019-02-01T06:23:08.778Z,22.90
2019-02-01T06:24:08.750Z,27.70
2019-02-01T06:25:08.719Z,29.70
2019-02-01T06:26:10.185Z,19.30
2019-02-01T06:27:08.728Z,28.90
2019-02-01T06:28:08.636Z,27.40
2019-02-01T06:29:08.600Z,24.80
2019-02-01T06:30:08.574Z,29.50
2019-02-01T06:31:08.543Z,30.80
2019-02-01T06:32:08.514Z,37.00
2019-02-01T06:33:08.482Z,28.30
2019-02-01T06:34:08.454Z,28.40
2019-02-01T06:35:08.437Z,27.20
2019-02-01T06:36:08.402Z,28.30
2019-02-01T06:37:08.363Z,35.40
2019-02-01T06:38:08.463Z,36.00
2019-02-01T06:39:08.305Z,32.80
2019-02-01T06:40:08.324Z,34.40
2019-02-01T06:41:08.246Z,35.30
2019-02-01T06:42:08.215Z,31.80
2019-02-01T06:43:08.187Z,37.80
2019-02-01T06:44:09.520Z,34.80
2019-02-01T06:45:08.128Z,23.90
2019-02-01T06:46:08.098Z,32.60
2019-02-01T06:47:08.068Z,30.90
2019-02-01T06:48:08.039Z,33.00
2019-02-01T06:49:08.013Z,35.80
2019-02-01T06:50:07.980Z,27.50
2019-02-01T06:51:07.957Z,23.20
2019-02-01T06:52:07.930Z,28.20
2019-02-01T06:53:07.898Z,31.60
2019-02-01T06:54:08.016Z,31.80
2019-02-01T06:55:07.831Z,27.00
2019-02-01T06:56:07.807Z,32.20
2019-02-01T06:57:07.778Z,31.80
2019-02-01T06:58:07.745Z,36.30
2019-02-01T06:59:07.714Z,35.70
2019-02-01T07:00:07.694Z,34.40
2019-02-01T07:01:07.657Z,35.20
2019-02-01T07:02:07.626Z,36.40
2019-02-01T07:03:07.597Z,37.00
2019-02-01T07:04:07.565Z,31.20
2019-02-01T07:05:07.537Z,32.10
2019-02-01T07:06:07.509Z,30.00
2019-02-01T07:07:07.481Z,31.30
2019-02-01T07:08:07.450Z,33.10
2019-02-01T07:09:07.436Z,30.50
2019-02-01T07:10:07.390Z,27.30
2019-02-01T07:11:07.373Z,30.80
2019-02-01T07:12:07.332Z,29.10
2019-02-01T07:13:07.309Z,32.70
2019-02-01T07:14:07.273Z,32.20
2019-02-01T07:15:07.245Z,32.10
2019-02-01T07:16:07.222Z,35.90
2019-02-01T07:17:07.191Z,31.90
2019-02-01T07:18:07.154Z,32.80
2019-02-01T07:19:07.131Z,33.10
2019-02-01T07:20:07.103Z,32.50
2019-02-01T07:21:08.169Z,31.70
2019-02-01T07:22:07.046Z,31.30
2019-02-01T07:23:07.030Z,23.60
2019-02-01T07:24:06.989Z,23.60
2019-02-01T07:25:06.950Z,27.50
2019-02-01T07:26:06.928Z,32.90
2019-02-01T07:27:06.894Z,33.10
2019-02-01T07:28:06.863Z,29.90
2019-02-01T07:29:06.843Z,30.90
2019-02-01T07:30:06.805Z,28.70
2019-02-01T07:31:06.776Z,21.80
2019-02-01T07:32:06.746Z,26.60
2019-02-01T07:33:06.733Z,29.10
2019-02-01T07:34:06.692Z,26.80
2019-02-01T07:35:06.658Z,28.40
2019-02-01T07:36:06.630Z,28.30
2019-02-01T07:37:06.600Z,28.90
2019-02-01T07:38:06.570Z,28.70
2019-02-01T07:39:06.542Z,28.60
2019-02-01T07:40:06.511Z,29.00
2019-02-01T07:41:06.483Z,31.20
2019-02-01T07:42:06.461Z,28.20
2019-02-01T07:43:06.423Z,31.70
2019-02-01T07:44:06.397Z,31.10
2019-02-01T07:45:06.366Z,25.70
2019-02-01T07:46:06.338Z,29.70
2019-02-01T07:47:06.371Z,27.70
2019-02-01T07:48:06.287Z,20.30
2019-02-01T07:49:06.249Z,32.00
2019-02-01T07:50:06.221Z,27.90
2019-02-01T07:51:15.194Z,28.10
2019-02-01T07:52:06.171Z,30.00
2019-02-01T07:53:06.148Z,26.10
2019-02-01T07:54:06.113Z,25.90
2019-02-01T07:55:06.084Z,30.40
2019-02-01T07:56:06.054Z,29.40
2019-02-01T07:57:06.024Z,31.00
2019-02-01T07:58:05.990Z,30.00
2019-02-01T07:59:05.969Z,32.10
2019-02-01T08:00:05.929Z,31.90
2019-02-01T08:01:05.906Z,28.00
2019-02-01T08:02:05.879Z,31.90
2019-02-01T08:03:05.843Z,29.50
2019-02-01T08:04:05.817Z,35.30
2019-02-01T08:05:05.794Z,32.60
2019-02-01T08:06:05.771Z,31.60
2019-02-01T08:07:05.726Z,26.10
2019-02-01T08:08:05.699Z,32.10
2019-02-01T08:09:05.682Z,25.80
2019-02-01T08:10:05.643Z,31.10
2019-02-01T08:11:05.611Z,27.60
2019-02-01T08:12:05.580Z,31.00
2019-02-01T08:13:05.564Z,30.40
2019-02-01T08:14:05.525Z,30.10
2019-02-01T08:15:05.495Z,27.70
2019-02-01T08:16:05.466Z,29.80
2019-02-01T08:17:05.443Z,29.40
2019-02-01T08:18:05.425Z,29.20
2019-02-01T08:19:05.391Z,25.60
2019-02-01T08:20:05.362Z,23.50
2019-02-01T08:21:05.326Z,26.60
2019-02-01T08:22:05.292Z,23.00
2019-02-01T08:23:05.267Z,26.40
2019-02-01T08:24:05.242Z,25.60
2019-02-01T08:25:05.209Z,28.00
2019-02-01T08:26:05.177Z,18.00
2019-02-01T08:27:05.154Z,26.70
2019-02-01T08:28:05.123Z,26.80
2019-02-01T08:29:05.098Z,27.80
2019-02-01T08:30:05.074Z,28.50
2019-02-01T08:31:05.039Z,26.90
2019-02-01T08:32:05.011Z,25.90
2019-02-01T08:33:05.131Z,22.80
2019-02-01T08:34:04.952Z,23.20
2019-02-01T08:35:04.921Z,29.70
2019-02-01T08:36:04.964Z,22.90
2019-02-01T08:37:04.865Z,23.70
2019-02-01T08:38:04.840Z,25.40
2019-02-01T08:39:04.814Z,22.40
2019-02-01T08:40:04.781Z,26.70
2019-02-01T08:41:04.761Z,23.00
2019-02-01T08:42:04.722Z,26.50
2019-02-01T08:43:06.520Z,27.60
2019-02-01T08:44:04.672Z,22.70
2019-02-01T08:45:04.641Z,22.80
2019-02-01T08:46:04.607Z,23.50
2019-02-01T08:47:04.579Z,31.20
2019-02-01T08:48:04.553Z,24.40
2019-02-01T08:49:04.524Z,24.00
2019-02-01T08:50:04.505Z,25.50
2019-02-01T08:51:04.467Z,24.40
2019-02-01T08:52:04.441Z,23.20
2019-02-01T08:53:04.423Z,23.90
2019-02-01T08:54:04.382Z,22.10
2019-02-01T08:55:04.363Z,24.50
2019-02-01T08:56:04.327Z,20.90
2019-02-01T08:57:04.307Z,20.90
2019-02-01T08:58:04.277Z,21.80
2019-02-01T08:59:04.242Z,23.30
2019-02-01T09:00:04.215Z,23.90
2019-02-01T09:01:04.186Z,22.90
2019-02-01T09:02:04.162Z,23.00
2019-02-01T09:03:04.131Z,23.20
2019-02-01T09:04:04.117Z,23.50
2019-02-01T09:05:04.076Z,22.20
2019-02-01T09:06:04.047Z,25.50
2019-02-01T09:07:04.020Z,23.00
2019-02-01T09:08:03.994Z,23.50
2019-02-01T09:09:03.971Z,25.50
2019-02-01T09:10:03.942Z,23.70
2019-02-01T09:11:03.910Z,24.60
2019-02-01T09:12:03.884Z,23.90
2019-02-01T09:13:03.860Z,30.60
2019-02-01T09:14:03.825Z,23.40
2019-02-01T09:15:03.807Z,23.30
2019-02-01T09:16:03.786Z,23.20
2019-02-01T09:17:03.741Z,24.10
2019-02-01T09:18:04.241Z,23.30
2019-02-01T09:19:03.692Z,23.40
2019-02-01T09:20:03.675Z,21.10
2019-02-01T09:21:03.903Z,24.30
2019-02-01T09:22:03.604Z,21.50
2019-02-01T09:23:03.580Z,22.70
2019-02-01T09:24:03.548Z,24.00
2019-02-01T09:25:03.528Z,22.20
2019-02-01T09:26:03.492Z,23.70
2019-02-01T09:27:03.475Z,27.10
2019-02-01T09:28:03.453Z,23.50
2019-02-01T09:29:03.414Z,23.40
2019-02-01T09:30:03.383Z,22.50
2019-02-01T09:31:03.357Z,21.80
2019-02-01T09:32:03.333Z,23.90
2019-02-01T09:33:03.300Z,22.80
2019-02-01T09:34:03.273Z,21.10
2019-02-01T09:35:03.246Z,22.20
2019-02-01T09:36:03.218Z,22.00
2019-02-01T09:37:03.190Z,24.10
2019-02-01T09:38:03.179Z,20.10
2019-02-01T09:39:03.135Z,21.30
2019-02-01T09:40:03.109Z,18.60
2019-02-01T09:41:03.080Z,23.10
2019-02-01T09:42:03.052Z,21.30
2019-02-01T09:43:03.030Z,23.50
2019-02-01T09:44:02.997Z,20.50
2019-02-01T09:45:02.973Z,19.20
2019-02-01T09:46:02.945Z,24.90
2019-02-01T09:47:02.913Z,20.20
2019-02-01T09:48:02.887Z,22.10
2019-02-01T09:49:02.867Z,24.30
2019-02-01T09:50:02.839Z,24.10
2019-02-01T09:51:02.810Z,25.10
2019-02-01T09:52:05.730Z,23.10
2019-02-01T09:53:02.751Z,26.10
2019-02-01T09:54:02.736Z,25.00
2019-02-01T09:55:02.696Z,23.10
2019-02-01T09:56:02.668Z,21.60
2019-02-01T09:57:02.643Z,24.90
2019-02-01T09:58:02.623Z,22.30
2019-02-01T09:59:02.595Z,21.60
2019-02-01T10:00:02.560Z,21.60
2019-02-01T10:01:02.533Z,24.00
2019-02-01T10:02:02.500Z,21.70
2019-02-01T10:03:02.477Z,20.00
2019-02-01T10:04:02.447Z,22.90
2019-02-01T10:05:02.436Z,20.50
2019-02-01T10:06:02.396Z,21.00
2019-02-01T10:07:02.366Z,19.00
2019-02-01T10:08:02.345Z,20.40
2019-02-01T10:09:02.319Z,20.20
2019-02-01T10:10:02.281Z,21.00
2019-02-01T10:11:02.264Z,21.30
2019-02-01T10:12:02.235Z,20.90
2019-02-01T10:13:02.200Z,21.90
2019-02-01T10:14:02.195Z,28.00
2019-02-01T10:15:02.145Z,20.70
2019-02-01T10:16:02.120Z,19.90
2019-02-01T10:17:02.092Z,20.10
2019-02-01T10:18:02.072Z,23.40
2019-02-01T10:19:02.039Z,24.60
2019-02-01T10:20:02.017Z,25.60
2019-02-01T10:21:01.983Z,22.70
2019-02-01T10:22:12.875Z,27.10
2019-02-01T10:23:01.931Z,26.80
2019-02-01T10:24:01.901Z,23.70
2019-02-01T10:25:01.899Z,22.60
2019-02-01T10:26:01.852Z,25.10
2019-02-01T10:27:01.819Z,24.70
2019-02-01T10:28:01.807Z,27.60
2019-02-01T10:29:01.771Z,24.20
2019-02-01T10:30:01.741Z,24.60
2019-02-01T10:31:01.717Z,21.90
2019-02-01T10:32:01.685Z,19.00
2019-02-01T10:33:01.659Z,18.10
2019-02-01T10:34:04.469Z,22.20
2019-02-01T10:35:01.618Z,21.50
2019-02-01T10:36:01.578Z,20.90
2019-02-01T10:37:01.549Z,20.60
2019-02-01T10:38:01.523Z,19.80
2019-02-01T10:39:01.505Z,22.30
2019-02-01T10:40:01.477Z,19.10
2019-02-01T10:41:01.442Z,23.30
2019-02-01T10:42:03.690Z,25.90
2019-02-01T10:43:01.473Z,21.70
2019-02-01T10:44:01.362Z,23.60
2019-02-01T10:45:01.450Z,24.10
2019-02-01T10:46:01.317Z,22.30
2019-02-01T10:47:10.699Z,25.60
2019-02-01T10:48:01.255Z,25.70
2019-02-01T10:49:01.256Z,26.40
2019-02-01T10:50:01.201Z,24.00
2019-02-01T10:51:01.176Z,25.90
2019-02-01T10:52:01.157Z,27.70
2019-02-01T10:53:01.250Z,21.90
2019-02-01T10:54:01.103Z,24.70
2019-02-01T10:55:01.078Z,21.50
2019-02-01T10:56:01.060Z,21.70
2019-02-01T10:57:01.019Z,19.70
2019-02-01T10:58:00.994Z,19.60
2019-02-01T10:59:00.964Z,18.30
2019-02-01T11:00:00.938Z,20.10
2019-02-01T11:01:00.913Z,20.20
2019-02-01T11:02:00.897Z,21.80
2019-02-01T11:03:00.859Z,20.00
2019-02-01T11:04:00.836Z,20.70
2019-02-01T11:05:00.815Z,23.20
2019-02-01T11:06:00.784Z,18.60
2019-02-01T11:07:00.764Z,20.80
2019-02-01T11:08:00.739Z,19.50
2019-02-01T11:09:00.713Z,22.20
2019-02-01T11:10:00.682Z,22.20
2019-02-01T11:11:00.663Z,22.60
2019-02-01T11:12:00.627Z,21.50
2019-02-01T11:13:00.607Z,20.30
2019-02-01T11:14:00.576Z,22.60
2019-02-01T11:15:00.560Z,23.40
2019-02-01T11:16:00.527Z,15.50
2019-02-01T11:17:00.510Z,18.10
2019-02-01T11:18:00.475Z,20.70
2019-02-01T11:19:00.456Z,18.50
2019-02-01T11:20:00.425Z,19.80
2019-02-01T11:21:00.401Z,20.60
2019-02-01T11:22:00.374Z,19.80
2019-02-01T11:23:00.358Z,22.70
2019-02-01T11:24:00.376Z,19.20
2019-02-01T11:25:00.384Z,20.50
2019-02-01T11:26:00.277Z,19.80
2019-02-01T11:27:00.257Z,22.60
2019-02-01T11:28:00.240Z,17.10
2019-02-01T11:29:00.223Z,20.10
2019-02-01T11:30:00.352Z,17.20
2019-02-01T11:31:00.332Z,24.10
2019-02-01T11:32:00.130Z,23.00
2019-02-01T11:33:00.106Z,16.50
2019-02-01T11:34:00.076Z,18.50
2019-02-01T11:35:00.057Z,19.80
2019-02-01T11:36:00.034Z,20.20
2019-02-01T11:37:00.005Z,20.10
2019-02-01T11:37:59.992Z,16.90
2019-02-01T11:38:59.956Z,16.30
2019-02-01T11:39:59.930Z,18.00
2019-02-01T11:40:59.989Z,16.70
2019-02-01T11:41:59.890Z,15.00
2019-02-01T11:42:59.859Z,14.30
2019-02-01T11:43:59.841Z,15.40
2019-02-01T11:44:59.811Z,15.20
2019-02-01T11:45:59.792Z,17.10
2019-02-01T11:46:59.762Z,15.30
2019-02-01T11:47:59.748Z,17.40
2019-02-01T11:48:59.715Z,16.40
2019-02-01T11:50:00.043Z,15.60
2019-02-01T11:50:59.668Z,13.60
2019-02-01T11:51:59.645Z,17.40
2019-02-01T11:52:59.621Z,15.80
2019-02-01T11:53:59.597Z,15.10
2019-02-01T11:54:59.585Z,14.40
2019-02-01T11:56:01.943Z,17.80
2019-02-01T11:56:59.526Z,15.60
2019-02-01T11:57:59.503Z,14.30
2019-02-01T11:59:07.536Z,16.00
2019-02-01T11:59:59.456Z,14.40
2019-02-01T12:00:59.432Z,14.60
2019-02-01T12:01:59.413Z,14.90
2019-02-01T12:02:59.406Z,14.00
2019-02-01T12:03:59.368Z,13.30
2019-02-01T12:04:59.346Z,17.10
2019-02-01T12:05:59.315Z,14.60
2019-02-01T12:06:59.294Z,14.50
2019-02-01T12:07:59.268Z,12.30
2019-02-01T12:08:59.263Z,13.90
2019-02-01T12:09:59.228Z,17.40
2019-02-01T12:10:59.213Z,15.60
2019-02-01T12:11:59.177Z,13.60
2019-02-01T12:12:59.153Z,15.40
2019-02-01T12:13:59.150Z,14.00
2019-02-01T12:14:59.105Z,14.20
2019-02-01T12:15:59.100Z,13.70
2019-02-01T12:16:59.061Z,13.80
2019-02-01T12:17:59.044Z,13.60
2019-02-01T12:18:59.016Z,14.50
2019-02-01T12:19:59.004Z,14.20
2019-02-01T12:20:58.975Z,15.40
2019-02-01T12:21:58.950Z,13.30
2019-02-01T12:23:00.830Z,14.50
2019-02-01T12:23:58.919Z,15.70
2019-02-01T12:24:58.877Z,17.10
2019-02-01T12:25:59.001Z,10.80
2019-02-01T12:27:01.423Z,12.90
2019-02-01T12:27:58.819Z,14.50
2019-02-01T12:28:58.775Z,15.40
2019-02-01T12:29:58.752Z,14.50
2019-02-01T12:30:58.753Z,13.10
2019-02-01T12:31:58.703Z,13.70
2019-02-01T12:32:58.681Z,16.50
2019-02-01T12:33:58.661Z,13.90
2019-02-01T12:34:58.632Z,15.10
2019-02-01T12:35:58.630Z,11.60
2019-02-01T12:37:03.400Z,13.10
2019-02-01T12:37:58.560Z,19.20
2019-02-01T12:38:58.537Z,15.80
2019-02-01T12:39:58.521Z,13.50
2019-02-01T12:40:58.490Z,14.20
2019-02-01T12:41:58.465Z,12.80
2019-02-01T12:42:58.457Z,16.50
2019-02-01T12:43:58.425Z,14.60
2019-02-01T12:44:58.412Z,18.70
2019-02-01T12:45:58.373Z,12.10
2019-02-01T12:46:58.420Z,12.50
2019-02-01T12:48:00.591Z,13.80
2019-02-01T12:48:58.299Z,14.30
2019-02-01T12:49:58.280Z,13.00
2019-02-01T12:50:58.252Z,15.00
2019-02-01T12:51:58.225Z,11.90
2019-02-01T12:52:58.205Z,12.90
2019-02-01T12:53:58.185Z,14.80
2019-02-01T12:54:58.152Z,12.90
2019-02-01T12:55:58.144Z,14.00
2019-02-01T12:56:58.108Z,15.00
2019-02-01T12:57:58.084Z,13.60